Aviation Digital Data Service (ADDS)

Output produced by METARs form (0957 UTC 27 May 2017)
found at http://www.aviationweather.gov/adds/metars/
 
SEGU 270900Z 22007KT 9999 FEW010 SCT026 BKN100 24/22 Q1011 NOSIG RMK A2987
SEGU 270940Z 2712/2812 05004KT 9999 SCT020 BKN100 
     FM271800 13005KT 9999 SCT026 SCT100 
     FM280000 22009KT 9999 FEW020 SCT100 
     FM280600 26005KT 9999 BKN020 BKN090 TX31/2720Z TN24/2809Z
       
SEMT 270900Z 20004KT 9999 FEW026 26/23 Q1012 RMK A2990
SEMT 270925Z 2712/2812 20004KT 9999 SCT026 SCT090 
     FM271700 33008KT 9999 FEW026 
     BECMG 2723/2801 22005KT 
     FM280600 20004KT 9999 BKN023 TX31/2720Z TN24/2810Z